Main page
METAR-TAF:

METAR-TAF

Airports :

Cotulla–La Salle County Airport

Cotulla, Texas, United States

latitude: 28-27-30N, longitude: 099-13-13W, elevation: 476 ft

Current weather observation

The report was made 38 minutes ago, at 01:53 UTC
Wind 6 mph from the North
Temperature 48°F
Humidity 81%
Pressure 30.39 in. Hg
Visibility: 10 miles
Clear sky

METAR: KCOT 110153Z AUTO 01005KT 10SM CLR 09/06 A3039 RMK AO2 SLP288 T00890061

Time: 20:31 (02:31 UTC)

Forecast

The report was made 2 hours and 54 minutes ago, at 23:37 UTC
Forecast valid from 11 at 00 UTC to 11 at 24 UTC
Wind 10 mph from the North/Northeast
Visibility: 6 miles
Overcast at a height of 2500 ft
From 11 at 1500 UTC
Wind 7 mph from the North/Northeast
Visibility: 6 miles
Scattered clouds at a height of 2500 ft
Scattered clouds at a height of 25000 ft

TAF: KCOT 102337Z 1100/1124 02009KT P6SM OVC025 FM111500 03006KT P6SM SCT025 SCT250

Weather observations and forecasts of more than 4000 airports (METAR and TAF reports).

The available stations are represented by yellow and red dots on the map.

Hover mouse over dot to see the name of the station.

Then click to see weather observations and forecasts.

To change the map : click on the green buttons with a black cross to zoom in, on the green button with a dash to zoom out, or on the green arrows for adjacent maps.


METAR-TAF: